sensor_id;sensor_type;location;lat;lon;timestamp;P1;durP1;ratioP1;P2;durP2;ratioP2
49592;SDS011;35499;51.482;4.264;2022-11-20T00:00:23;7.50;;;3.60;;
49592;SDS011;35499;51.482;4.264;2022-11-20T00:02:48;9.88;;;5.10;;
49592;SDS011;35499;51.482;4.264;2022-11-20T00:05:13;7.70;;;4.63;;
49592;SDS011;35499;51.482;4.264;2022-11-20T00:07:39;8.43;;;4.83;;
49592;SDS011;35499;51.482;4.264;2022-11-20T00:10:04;14.90;;;4.57;;
49592;SDS011;35499;51.482;4.264;2022-11-20T00:12:29;9.65;;;5.13;;
49592;SDS011;35499;51.482;4.264;2022-11-20T00:14:54;7.00;;;4.13;;
49592;SDS011;35499;51.482;4.264;2022-11-20T00:17:19;9.70;;;4.67;;
49592;SDS011;35499;51.482;4.264;2022-11-20T00:19:45;9.63;;;4.23;;
49592;SDS011;35499;51.482;4.264;2022-11-20T00:22:10;9.40;;;3.37;;
49592;SDS011;35499;51.482;4.264;2022-11-20T00:24:35;6.47;;;4.20;;
49592;SDS011;35499;51.482;4.264;2022-11-20T00:27:00;9.33;;;5.47;;
49592;SDS011;35499;51.482;4.264;2022-11-20T00:29:25;12.37;;;5.27;;
49592;SDS011;35499;51.482;4.264;2022-11-20T00:31:50;10.70;;;4.47;;
49592;SDS011;35499;51.482;4.264;2022-11-20T00:34:16;11.35;;;4.07;;
49592;SDS011;35499;51.482;4.264;2022-11-20T00:36:41;8.53;;;4.27;;
49592;SDS011;35499;51.482;4.264;2022-11-20T00:39:06;11.57;;;5.27;;
49592;SDS011;35499;51.482;4.264;2022-11-20T00:41:31;6.60;;;4.37;;
49592;SDS011;35499;51.482;4.264;2022-11-20T00:43:56;7.77;;;4.40;;
49592;SDS011;35499;51.482;4.264;2022-11-20T00:46:23;10.53;;;4.10;;
49592;SDS011;35499;51.482;4.264;2022-11-20T00:48:48;10.52;;;4.10;;
49592;SDS011;35499;51.482;4.264;2022-11-20T00:51:18;5.47;;;3.53;;
49592;SDS011;35499;51.482;4.264;2022-11-20T00:53:43;11.73;;;4.30;;
49592;SDS011;35499;51.482;4.264;2022-11-20T00:56:12;11.07;;;5.13;;
49592;SDS011;35499;51.482;4.264;2022-11-20T00:58:39;8.95;;;4.88;;
49592;SDS011;35499;51.482;4.264;2022-11-20T01:01:05;7.57;;;4.15;;
49592;SDS011;35499;51.482;4.264;2022-11-20T01:03:34;10.00;;;4.75;;
49592;SDS011;35499;51.482;4.264;2022-11-20T01:06:03;8.85;;;5.13;;
49592;SDS011;35499;51.482;4.264;2022-11-20T01:08:33;6.03;;;2.80;;
49592;SDS011;35499;51.482;4.264;2022-11-20T01:11:09;6.32;;;3.63;;
49592;SDS011;35499;51.482;4.264;2022-11-20T01:13:35;8.43;;;4.32;;
49592;SDS011;35499;51.482;4.264;2022-11-20T01:16:10;9.25;;;4.68;;
49592;SDS011;35499;51.482;4.264;2022-11-20T01:18:36;6.63;;;3.65;;
49592;SDS011;35499;51.482;4.264;2022-11-20T01:21:03;5.03;;;3.10;;
49592;SDS011;35499;51.482;4.264;2022-11-20T01:23:33;8.27;;;4.38;;
49592;SDS011;35499;51.482;4.264;2022-11-20T01:26:02;12.82;;;4.40;;
49592;SDS011;35499;51.482;4.264;2022-11-20T01:28:28;11.30;;;4.68;;
49592;SDS011;35499;51.482;4.264;2022-11-20T01:30:53;10.35;;;4.22;;
49592;SDS011;35499;51.482;4.264;2022-11-20T01:33:18;8.90;;;3.73;;
49592;SDS011;35499;51.482;4.264;2022-11-20T01:35:43;7.83;;;4.30;;
49592;SDS011;35499;51.482;4.264;2022-11-20T01:38:08;6.60;;;3.80;;
49592;SDS011;35499;51.482;4.264;2022-11-20T01:40:34;8.20;;;3.57;;
49592;SDS011;35499;51.482;4.264;2022-11-20T01:43:17;5.77;;;2.80;;
49592;SDS011;35499;51.482;4.264;2022-11-20T01:48:11;8.23;;;4.35;;
49592;SDS011;35499;51.482;4.264;2022-11-20T01:50:36;8.13;;;3.97;;
49592;SDS011;35499;51.482;4.264;2022-11-20T01:53:02;9.93;;;4.37;;
49592;SDS011;35499;51.482;4.264;2022-11-20T01:55:31;7.65;;;4.68;;
49592;SDS011;35499;51.482;4.264;2022-11-20T01:57:57;9.75;;;3.80;;
49592;SDS011;35499;51.482;4.264;2022-11-20T02:00:23;10.50;;;4.93;;
49592;SDS011;35499;51.482;4.264;2022-11-20T02:02:52;7.93;;;3.70;;
49592;SDS011;35499;51.482;4.264;2022-11-20T02:05:35;8.80;;;5.05;;
49592;SDS011;35499;51.482;4.264;2022-11-20T02:13:12;7.47;;;3.55;;
49592;SDS011;35499;51.482;4.264;2022-11-20T02:15:56;7.75;;;3.90;;
49592;SDS011;35499;51.482;4.264;2022-11-20T02:18:22;7.50;;;4.75;;
49592;SDS011;35499;51.482;4.264;2022-11-20T02:20:48;6.93;;;4.13;;
49592;SDS011;35499;51.482;4.264;2022-11-20T02:25:39;5.90;;;3.60;;
49592;SDS011;35499;51.482;4.264;2022-11-20T02:28:05;8.63;;;4.72;;
49592;SDS011;35499;51.482;4.264;2022-11-20T02:30:31;9.27;;;3.55;;
49592;SDS011;35499;51.482;4.264;2022-11-20T02:32:57;4.90;;;3.27;;
49592;SDS011;35499;51.482;4.264;2022-11-20T02:37:48;5.50;;;3.80;;
49592;SDS011;35499;51.482;4.264;2022-11-20T02:40:13;6.40;;;3.63;;
49592;SDS011;35499;51.482;4.264;2022-11-20T02:42:39;7.47;;;4.05;;
49592;SDS011;35499;51.482;4.264;2022-11-20T02:45:04;7.57;;;4.30;;
49592;SDS011;35499;51.482;4.264;2022-11-20T02:47:30;5.57;;;3.72;;
49592;SDS011;35499;51.482;4.264;2022-11-20T02:49:55;9.47;;;5.03;;
49592;SDS011;35499;51.482;4.264;2022-11-20T02:52:20;5.07;;;3.03;;
49592;SDS011;35499;51.482;4.264;2022-11-20T02:54:46;9.13;;;4.90;;
49592;SDS011;35499;51.482;4.264;2022-11-20T02:57:11;4.10;;;2.40;;
49592;SDS011;35499;51.482;4.264;2022-11-20T02:59:36;6.43;;;3.37;;
49592;SDS011;35499;51.482;4.264;2022-11-20T03:02:01;9.13;;;4.90;;
49592;SDS011;35499;51.482;4.264;2022-11-20T03:04:26;6.80;;;3.80;;
49592;SDS011;35499;51.482;4.264;2022-11-20T03:06:52;6.63;;;3.33;;
49592;SDS011;35499;51.482;4.264;2022-11-20T03:09:17;8.77;;;4.87;;
49592;SDS011;35499;51.482;4.264;2022-11-20T03:11:42;7.60;;;4.10;;
49592;SDS011;35499;51.482;4.264;2022-11-20T03:14:07;9.43;;;4.33;;
49592;SDS011;35499;51.482;4.264;2022-11-20T03:16:32;8.77;;;4.13;;
49592;SDS011;35499;51.482;4.264;2022-11-20T03:18:58;8.53;;;4.03;;
49592;SDS011;35499;51.482;4.264;2022-11-20T03:21:23;7.05;;;3.97;;
49592;SDS011;35499;51.482;4.264;2022-11-20T03:23:48;7.13;;;3.63;;
49592;SDS011;35499;51.482;4.264;2022-11-20T03:26:15;6.80;;;4.20;;
49592;SDS011;35499;51.482;4.264;2022-11-20T03:28:41;6.55;;;4.35;;
49592;SDS011;35499;51.482;4.264;2022-11-20T03:31:11;6.63;;;3.90;;
49592;SDS011;35499;51.482;4.264;2022-11-20T03:33:36;6.22;;;3.45;;
49592;SDS011;35499;51.482;4.264;2022-11-20T03:36:03;6.63;;;4.70;;
49592;SDS011;35499;51.482;4.264;2022-11-20T03:38:31;9.38;;;4.70;;
49592;SDS011;35499;51.482;4.264;2022-11-20T03:41:06;11.95;;;5.53;;
49592;SDS011;35499;51.482;4.264;2022-11-20T03:43:31;9.48;;;4.10;;
49592;SDS011;35499;51.482;4.264;2022-11-20T03:45:57;8.27;;;4.63;;
49592;SDS011;35499;51.482;4.264;2022-11-20T03:48:22;4.40;;;2.73;;
49592;SDS011;35499;51.482;4.264;2022-11-20T03:50:47;10.93;;;5.03;;
49592;SDS011;35499;51.482;4.264;2022-11-20T03:53:13;9.10;;;3.23;;
49592;SDS011;35499;51.482;4.264;2022-11-20T03:55:38;10.57;;;4.65;;
49592;SDS011;35499;51.482;4.264;2022-11-20T03:58:03;11.20;;;4.07;;
49592;SDS011;35499;51.482;4.264;2022-11-20T04:00:29;7.30;;;3.80;;
49592;SDS011;35499;51.482;4.264;2022-11-20T04:02:57;9.50;;;3.87;;
49592;SDS011;35499;51.482;4.264;2022-11-20T04:05:22;10.50;;;4.78;;
49592;SDS011;35499;51.482;4.264;2022-11-20T04:07:47;10.53;;;4.90;;
49592;SDS011;35499;51.482;4.264;2022-11-20T04:10:12;12.47;;;5.67;;
49592;SDS011;35499;51.482;4.264;2022-11-20T04:12:37;9.97;;;5.07;;
49592;SDS011;35499;51.482;4.264;2022-11-20T04:15:03;9.40;;;5.57;;
49592;SDS011;35499;51.482;4.264;2022-11-20T04:17:28;6.57;;;3.45;;
49592;SDS011;35499;51.482;4.264;2022-11-20T04:19:53;11.90;;;5.93;;
49592;SDS011;35499;51.482;4.264;2022-11-20T04:22:18;6.67;;;3.40;;
49592;SDS011;35499;51.482;4.264;2022-11-20T04:24:44;12.97;;;5.30;;
49592;SDS011;35499;51.482;4.264;2022-11-20T04:27:09;8.23;;;4.67;;
49592;SDS011;35499;51.482;4.264;2022-11-20T04:29:34;9.17;;;4.77;;
49592;SDS011;35499;51.482;4.264;2022-11-20T04:31:59;7.33;;;4.37;;
49592;SDS011;35499;51.482;4.264;2022-11-20T04:34:24;6.00;;;3.93;;
49592;SDS011;35499;51.482;4.264;2022-11-20T04:36:49;9.70;;;4.77;;
49592;SDS011;35499;51.482;4.264;2022-11-20T04:39:15;13.00;;;5.40;;
49592;SDS011;35499;51.482;4.264;2022-11-20T04:41:40;7.83;;;4.53;;
49592;SDS011;35499;51.482;4.264;2022-11-20T04:44:05;7.18;;;4.63;;
49592;SDS011;35499;51.482;4.264;2022-11-20T04:46:32;10.00;;;5.40;;
49592;SDS011;35499;51.482;4.264;2022-11-20T04:48:58;7.82;;;4.95;;
49592;SDS011;35499;51.482;4.264;2022-11-20T04:51:23;9.50;;;4.82;;
49592;SDS011;35499;51.482;4.264;2022-11-20T04:53:48;9.10;;;5.47;;
49592;SDS011;35499;51.482;4.264;2022-11-20T04:56:14;11.23;;;5.03;;
49592;SDS011;35499;51.482;4.264;2022-11-20T04:58:39;8.40;;;5.45;;
49592;SDS011;35499;51.482;4.264;2022-11-20T05:03:30;12.90;;;5.10;;
49592;SDS011;35499;51.482;4.264;2022-11-20T05:05:55;9.38;;;4.47;;
49592;SDS011;35499;51.482;4.264;2022-11-20T05:08:21;9.23;;;5.00;;
49592;SDS011;35499;51.482;4.264;2022-11-20T05:10:46;12.82;;;5.75;;
49592;SDS011;35499;51.482;4.264;2022-11-20T05:13:11;8.20;;;4.13;;
49592;SDS011;35499;51.482;4.264;2022-11-20T05:15:36;11.40;;;5.70;;
49592;SDS011;35499;51.482;4.264;2022-11-20T05:18:01;10.00;;;5.67;;
49592;SDS011;35499;51.482;4.264;2022-11-20T05:20:27;17.43;;;6.07;;
49592;SDS011;35499;51.482;4.264;2022-11-20T05:22:52;13.10;;;5.57;;
49592;SDS011;35499;51.482;4.264;2022-11-20T05:25:17;14.10;;;6.07;;
49592;SDS011;35499;51.482;4.264;2022-11-20T05:27:42;11.67;;;5.67;;
49592;SDS011;35499;51.482;4.264;2022-11-20T05:30:08;8.50;;;4.30;;
49592;SDS011;35499;51.482;4.264;2022-11-20T05:32:33;15.63;;;6.38;;
49592;SDS011;35499;51.482;4.264;2022-11-20T05:34:58;7.57;;;4.67;;
49592;SDS011;35499;51.482;4.264;2022-11-20T05:37:23;11.87;;;4.83;;
49592;SDS011;35499;51.482;4.264;2022-11-20T05:39:49;11.20;;;5.57;;
49592;SDS011;35499;51.482;4.264;2022-11-20T05:42:14;14.00;;;7.37;;
49592;SDS011;35499;51.482;4.264;2022-11-20T05:44:57;11.15;;;5.30;;
49592;SDS011;35499;51.482;4.264;2022-11-20T05:47:23;15.93;;;7.55;;
49592;SDS011;35499;51.482;4.264;2022-11-20T05:49:48;14.10;;;5.95;;
49592;SDS011;35499;51.482;4.264;2022-11-20T05:52:13;13.97;;;5.30;;
49592;SDS011;35499;51.482;4.264;2022-11-20T05:54:38;11.37;;;4.50;;
49592;SDS011;35499;51.482;4.264;2022-11-20T05:57:04;14.03;;;6.63;;
49592;SDS011;35499;51.482;4.264;2022-11-20T05:59:29;13.02;;;5.80;;
49592;SDS011;35499;51.482;4.264;2022-11-20T06:01:54;11.93;;;7.10;;
49592;SDS011;35499;51.482;4.264;2022-11-20T06:04:19;13.97;;;7.23;;
49592;SDS011;35499;51.482;4.264;2022-11-20T06:06:45;18.50;;;7.87;;
49592;SDS011;35499;51.482;4.264;2022-11-20T06:09:10;12.53;;;5.77;;
49592;SDS011;35499;51.482;4.264;2022-11-20T06:11:35;12.67;;;6.77;;
49592;SDS011;35499;51.482;4.264;2022-11-20T06:14:00;18.60;;;7.70;;
49592;SDS011;35499;51.482;4.264;2022-11-20T06:16:25;13.63;;;5.40;;
49592;SDS011;35499;51.482;4.264;2022-11-20T06:18:51;11.97;;;5.50;;
49592;SDS011;35499;51.482;4.264;2022-11-20T06:21:17;20.57;;;8.70;;
49592;SDS011;35499;51.482;4.264;2022-11-20T06:23:43;11.95;;;5.90;;
49592;SDS011;35499;51.482;4.264;2022-11-20T06:26:12;17.80;;;7.17;;
49592;SDS011;35499;51.482;4.264;2022-11-20T06:28:38;17.60;;;9.00;;
49592;SDS011;35499;51.482;4.264;2022-11-20T06:31:04;15.50;;;6.68;;
49592;SDS011;35499;51.482;4.264;2022-11-20T06:33:29;18.48;;;9.38;;
49592;SDS011;35499;51.482;4.264;2022-11-20T06:35:58;17.83;;;7.63;;
49592;SDS011;35499;51.482;4.264;2022-11-20T06:38:24;14.98;;;6.90;;
49592;SDS011;35499;51.482;4.264;2022-11-20T06:40:49;25.17;;;9.20;;
49592;SDS011;35499;51.482;4.264;2022-11-20T06:43:14;15.27;;;7.30;;
49592;SDS011;35499;51.482;4.264;2022-11-20T06:45:40;16.73;;;7.70;;
49592;SDS011;35499;51.482;4.264;2022-11-20T06:48:05;21.17;;;10.15;;
49592;SDS011;35499;51.482;4.264;2022-11-20T06:50:30;17.30;;;8.50;;
49592;SDS011;35499;51.482;4.264;2022-11-20T06:52:56;19.57;;;8.80;;
49592;SDS011;35499;51.482;4.264;2022-11-20T06:55:21;16.97;;;9.13;;
49592;SDS011;35499;51.482;4.264;2022-11-20T06:57:46;18.20;;;8.13;;
49592;SDS011;35499;51.482;4.264;2022-11-20T07:00:11;15.33;;;7.63;;
49592;SDS011;35499;51.482;4.264;2022-11-20T07:02:37;17.42;;;7.47;;
49592;SDS011;35499;51.482;4.264;2022-11-20T07:05:02;21.47;;;9.10;;
49592;SDS011;35499;51.482;4.264;2022-11-20T07:07:27;28.63;;;9.27;;
49592;SDS011;35499;51.482;4.264;2022-11-20T07:09:52;26.10;;;9.30;;
49592;SDS011;35499;51.482;4.264;2022-11-20T07:12:17;16.00;;;8.33;;
49592;SDS011;35499;51.482;4.264;2022-11-20T07:14:43;20.20;;;9.77;;
49592;SDS011;35499;51.482;4.264;2022-11-20T07:17:08;16.47;;;8.47;;
49592;SDS011;35499;51.482;4.264;2022-11-20T07:19:33;14.40;;;8.47;;
49592;SDS011;35499;51.482;4.264;2022-11-20T07:21:58;27.33;;;11.67;;
49592;SDS011;35499;51.482;4.264;2022-11-20T07:24:23;20.80;;;8.27;;
49592;SDS011;35499;51.482;4.264;2022-11-20T07:26:49;23.73;;;8.68;;
49592;SDS011;35499;51.482;4.264;2022-11-20T07:29:14;20.20;;;9.30;;
49592;SDS011;35499;51.482;4.264;2022-11-20T07:31:40;17.55;;;9.95;;
49592;SDS011;35499;51.482;4.264;2022-11-20T07:34:05;26.93;;;9.17;;
49592;SDS011;35499;51.482;4.264;2022-11-20T07:36:30;29.00;;;10.80;;
49592;SDS011;35499;51.482;4.264;2022-11-20T07:38:55;21.37;;;8.13;;
49592;SDS011;35499;51.482;4.264;2022-11-20T07:41:20;13.47;;;7.67;;
49592;SDS011;35499;51.482;4.264;2022-11-20T07:43:45;19.87;;;8.27;;
49592;SDS011;35499;51.482;4.264;2022-11-20T07:46:11;21.27;;;9.80;;
49592;SDS011;35499;51.482;4.264;2022-11-20T07:48:36;21.02;;;9.05;;
49592;SDS011;35499;51.482;4.264;2022-11-20T07:51:01;18.73;;;9.00;;
49592;SDS011;35499;51.482;4.264;2022-11-20T07:53:26;17.50;;;8.93;;
49592;SDS011;35499;51.482;4.264;2022-11-20T07:55:52;20.20;;;8.80;;
49592;SDS011;35499;51.482;4.264;2022-11-20T07:58:17;25.08;;;11.43;;
49592;SDS011;35499;51.482;4.264;2022-11-20T08:00:42;19.65;;;7.88;;
49592;SDS011;35499;51.482;4.264;2022-11-20T08:03:08;18.83;;;9.97;;
49592;SDS011;35499;51.482;4.264;2022-11-20T08:05:33;26.87;;;11.37;;
49592;SDS011;35499;51.482;4.264;2022-11-20T08:07:58;21.02;;;10.07;;
49592;SDS011;35499;51.482;4.264;2022-11-20T08:10:24;20.58;;;9.48;;
49592;SDS011;35499;51.482;4.264;2022-11-20T08:12:50;19.05;;;10.73;;
49592;SDS011;35499;51.482;4.264;2022-11-20T08:15:34;19.15;;;8.27;;
49592;SDS011;35499;51.482;4.264;2022-11-20T08:18:00;25.40;;;10.32;;
49592;SDS011;35499;51.482;4.264;2022-11-20T08:20:25;21.98;;;8.45;;
49592;SDS011;35499;51.482;4.264;2022-11-20T08:22:51;18.40;;;8.07;;
49592;SDS011;35499;51.482;4.264;2022-11-20T08:25:16;20.70;;;10.60;;
49592;SDS011;35499;51.482;4.264;2022-11-20T08:27:41;30.43;;;14.30;;
49592;SDS011;35499;51.482;4.264;2022-11-20T08:30:07;21.17;;;11.00;;
49592;SDS011;35499;51.482;4.264;2022-11-20T08:32:32;25.00;;;10.38;;
49592;SDS011;35499;51.482;4.264;2022-11-20T08:34:59;22.70;;;10.07;;
49592;SDS011;35499;51.482;4.264;2022-11-20T08:37:25;28.27;;;12.00;;
49592;SDS011;35499;51.482;4.264;2022-11-20T08:39:50;15.43;;;6.97;;
49592;SDS011;35499;51.482;4.264;2022-11-20T08:42:15;18.63;;;9.97;;
49592;SDS011;35499;51.482;4.264;2022-11-20T08:44:40;19.67;;;7.70;;
49592;SDS011;35499;51.482;4.264;2022-11-20T08:47:05;23.37;;;10.37;;
49592;SDS011;35499;51.482;4.264;2022-11-20T08:49:31;27.97;;;8.30;;
49592;SDS011;35499;51.482;4.264;2022-11-20T08:51:56;27.50;;;10.83;;
49592;SDS011;35499;51.482;4.264;2022-11-20T08:54:21;25.95;;;10.05;;
49592;SDS011;35499;51.482;4.264;2022-11-20T08:56:47;19.63;;;11.05;;
49592;SDS011;35499;51.482;4.264;2022-11-20T08:59:12;20.05;;;8.02;;
49592;SDS011;35499;51.482;4.264;2022-11-20T09:01:38;24.23;;;11.57;;
49592;SDS011;35499;51.482;4.264;2022-11-20T09:04:04;21.92;;;9.85;;
49592;SDS011;35499;51.482;4.264;2022-11-20T09:06:29;24.02;;;8.60;;
49592;SDS011;35499;51.482;4.264;2022-11-20T09:08:54;30.00;;;11.33;;
49592;SDS011;35499;51.482;4.264;2022-11-20T09:11:20;21.47;;;9.10;;
49592;SDS011;35499;51.482;4.264;2022-11-20T09:13:45;21.63;;;11.60;;
49592;SDS011;35499;51.482;4.264;2022-11-20T09:16:10;28.97;;;12.13;;
49592;SDS011;35499;51.482;4.264;2022-11-20T09:18:36;22.70;;;8.80;;
49592;SDS011;35499;51.482;4.264;2022-11-20T09:21:03;36.50;;;10.85;;
49592;SDS011;35499;51.482;4.264;2022-11-20T09:23:32;23.50;;;11.52;;
49592;SDS011;35499;51.482;4.264;2022-11-20T09:25:58;22.23;;;10.02;;
49592;SDS011;35499;51.482;4.264;2022-11-20T09:28:26;22.35;;;9.95;;
49592;SDS011;35499;51.482;4.264;2022-11-20T09:30:51;26.53;;;10.87;;
49592;SDS011;35499;51.482;4.264;2022-11-20T09:33:16;20.20;;;10.23;;
49592;SDS011;35499;51.482;4.264;2022-11-20T09:35:42;25.50;;;9.40;;
49592;SDS011;35499;51.482;4.264;2022-11-20T09:38:08;22.95;;;9.27;;
49592;SDS011;35499;51.482;4.264;2022-11-20T09:40:35;23.70;;;8.75;;
49592;SDS011;35499;51.482;4.264;2022-11-20T09:48:40;22.33;;;9.30;;
49592;SDS011;35499;51.482;4.264;2022-11-20T09:51:21;18.98;;;7.32;;
49592;SDS011;35499;51.482;4.264;2022-11-20T09:56:18;21.27;;;8.32;;
49592;SDS011;35499;51.482;4.264;2022-11-20T09:58:45;26.75;;;10.43;;
49592;SDS011;35499;51.482;4.264;2022-11-20T10:01:14;24.50;;;11.55;;
49592;SDS011;35499;51.482;4.264;2022-11-20T10:06:05;14.50;;;7.77;;
49592;SDS011;35499;51.482;4.264;2022-11-20T10:09:21;20.65;;;6.97;;
49592;SDS011;35499;51.482;4.264;2022-11-20T10:11:21;25.95;;;11.02;;
49592;SDS011;35499;51.482;4.264;2022-11-20T10:29:19;25.63;;;9.73;;
49592;SDS011;35499;51.482;4.264;2022-11-20T10:31:48;25.08;;;9.82;;
49592;SDS011;35499;51.482;4.264;2022-11-20T10:34:20;31.08;;;9.90;;
49592;SDS011;35499;51.482;4.264;2022-11-20T10:36:52;21.13;;;10.07;;
49592;SDS011;35499;51.482;4.264;2022-11-20T10:41:49;32.20;;;12.38;;
49592;SDS011;35499;51.482;4.264;2022-11-20T10:44:17;27.70;;;9.10;;
49592;SDS011;35499;51.482;4.264;2022-11-20T10:47:02;24.15;;;9.60;;
49592;SDS011;35499;51.482;4.264;2022-11-20T10:49:28;26.17;;;10.05;;
49592;SDS011;35499;51.482;4.264;2022-11-20T10:51:59;22.95;;;9.30;;
49592;SDS011;35499;51.482;4.264;2022-11-20T10:54:47;20.90;;;8.30;;
49592;SDS011;35499;51.482;4.264;2022-11-20T10:57:20;24.65;;;10.85;;
49592;SDS011;35499;51.482;4.264;2022-11-20T10:59:59;20.60;;;9.40;;
49592;SDS011;35499;51.482;4.264;2022-11-20T11:02:33;25.13;;;10.18;;
49592;SDS011;35499;51.482;4.264;2022-11-20T11:04:59;26.73;;;9.75;;
49592;SDS011;35499;51.482;4.264;2022-11-20T11:07:39;25.67;;;9.55;;
49592;SDS011;35499;51.482;4.264;2022-11-20T11:10:15;24.80;;;8.82;;
49592;SDS011;35499;51.482;4.264;2022-11-20T11:12:43;25.35;;;10.30;;
49592;SDS011;35499;51.482;4.264;2022-11-20T11:17:53;31.45;;;11.38;;
49592;SDS011;35499;51.482;4.264;2022-11-20T11:20:19;29.48;;;11.18;;
49592;SDS011;35499;51.482;4.264;2022-11-20T11:22:52;27.92;;;12.88;;
49592;SDS011;35499;51.482;4.264;2022-11-20T11:27:53;20.83;;;8.43;;
49592;SDS011;35499;51.482;4.264;2022-11-20T11:30:21;18.85;;;8.18;;
49592;SDS011;35499;51.482;4.264;2022-11-20T11:32:46;27.10;;;10.32;;
49592;SDS011;35499;51.482;4.264;2022-11-20T11:35:22;27.45;;;10.60;;
49592;SDS011;35499;51.482;4.264;2022-11-20T11:37:48;48.42;;;11.80;;
49592;SDS011;35499;51.482;4.264;2022-11-20T11:40:14;34.33;;;12.02;;
49592;SDS011;35499;51.482;4.264;2022-11-20T11:42:41;24.05;;;9.90;;
49592;SDS011;35499;51.482;4.264;2022-11-20T11:45:07;12.80;;;6.18;;
49592;SDS011;35499;51.482;4.264;2022-11-20T11:47:36;25.77;;;9.27;;
49592;SDS011;35499;51.482;4.264;2022-11-20T11:55:34;9.90;;;5.03;;
49592;SDS011;35499;51.482;4.264;2022-11-20T12:00:38;21.83;;;7.97;;
49592;SDS011;35499;51.482;4.264;2022-11-20T12:05:43;33.30;;;11.57;;
49592;SDS011;35499;51.482;4.264;2022-11-20T12:08:31;23.30;;;8.38;;
49592;SDS011;35499;51.482;4.264;2022-11-20T12:16:01;24.63;;;7.95;;
49592;SDS011;35499;51.482;4.264;2022-11-20T12:18:26;18.13;;;7.82;;
49592;SDS011;35499;51.482;4.264;2022-11-20T12:26:02;22.92;;;7.20;;
49592;SDS011;35499;51.482;4.264;2022-11-20T12:28:34;17.92;;;7.90;;
49592;SDS011;35499;51.482;4.264;2022-11-20T12:33:43;23.20;;;7.28;;
49592;SDS011;35499;51.482;4.264;2022-11-20T12:41:27;23.85;;;7.53;;
49592;SDS011;35499;51.482;4.264;2022-11-20T12:44:33;15.48;;;6.10;;
49592;SDS011;35499;51.482;4.264;2022-11-20T12:50:22;18.00;;;8.52;;
49592;SDS011;35499;51.482;4.264;2022-11-20T12:52:54;11.75;;;5.43;;
49592;SDS011;35499;51.482;4.264;2022-11-20T13:03:36;22.92;;;6.00;;
49592;SDS011;35499;51.482;4.264;2022-11-20T13:11:12;18.93;;;8.13;;
49592;SDS011;35499;51.482;4.264;2022-11-20T13:13:43;23.63;;;6.50;;
49592;SDS011;35499;51.482;4.264;2022-11-20T13:16:12;10.98;;;5.05;;
49592;SDS011;35499;51.482;4.264;2022-11-20T13:18:41;25.80;;;8.55;;
49592;SDS011;35499;51.482;4.264;2022-11-20T13:21:41;28.00;;;7.90;;
49592;SDS011;35499;51.482;4.264;2022-11-20T13:24:05;23.70;;;8.90;;
49592;SDS011;35499;51.482;4.264;2022-11-20T13:26:30;12.18;;;4.70;;
49592;SDS011;35499;51.482;4.264;2022-11-20T13:29:01;29.95;;;8.75;;
49592;SDS011;35499;51.482;4.264;2022-11-20T13:31:31;27.00;;;9.43;;
49592;SDS011;35499;51.482;4.264;2022-11-20T13:33:57;18.10;;;6.70;;
49592;SDS011;35499;51.482;4.264;2022-11-20T13:36:24;22.48;;;7.88;;
49592;SDS011;35499;51.482;4.264;2022-11-20T13:38:51;29.20;;;6.65;;
49592;SDS011;35499;51.482;4.264;2022-11-20T13:41:33;15.52;;;5.07;;
49592;SDS011;35499;51.482;4.264;2022-11-20T13:44:13;15.02;;;6.28;;
49592;SDS011;35499;51.482;4.264;2022-11-20T13:46:40;8.00;;;4.25;;
49592;SDS011;35499;51.482;4.264;2022-11-20T13:49:07;4.82;;;2.80;;
49592;SDS011;35499;51.482;4.264;2022-11-20T13:51:40;3.88;;;2.15;;
49592;SDS011;35499;51.482;4.264;2022-11-20T13:54:14;2.72;;;1.65;;
49592;SDS011;35499;51.482;4.264;2022-11-20T13:56:47;3.47;;;1.63;;
49592;SDS011;35499;51.482;4.264;2022-11-20T14:01:48;2.50;;;1.50;;
49592;SDS011;35499;51.482;4.264;2022-11-20T14:04:18;1.80;;;0.82;;
49592;SDS011;35499;51.482;4.264;2022-11-20T14:06:45;0.88;;;0.73;;
49592;SDS011;35499;51.482;4.264;2022-11-20T14:09:33;3.13;;;1.13;;
49592;SDS011;35499;51.482;4.264;2022-11-20T14:11:57;0.82;;;0.73;;
49592;SDS011;35499;51.482;4.264;2022-11-20T14:14:28;2.17;;;0.93;;
49592;SDS011;35499;51.482;4.264;2022-11-20T14:17:07;1.27;;;1.13;;
49592;SDS011;35499;51.482;4.264;2022-11-20T14:19:32;2.55;;;1.13;;
49592;SDS011;35499;51.482;4.264;2022-11-20T14:22:09;2.03;;;1.30;;
49592;SDS011;35499;51.482;4.264;2022-11-20T14:24:34;3.58;;;1.40;;
49592;SDS011;35499;51.482;4.264;2022-11-20T14:26:59;2.30;;;0.80;;
49592;SDS011;35499;51.482;4.264;2022-11-20T14:29:43;2.03;;;0.98;;
49592;SDS011;35499;51.482;4.264;2022-11-20T14:32:09;3.47;;;1.90;;
49592;SDS011;35499;51.482;4.264;2022-11-20T14:34:38;2.38;;;1.88;;
49592;SDS011;35499;51.482;4.264;2022-11-20T14:37:05;1.92;;;1.15;;
49592;SDS011;35499;51.482;4.264;2022-11-20T14:39:35;1.10;;;0.93;;
49592;SDS011;35499;51.482;4.264;2022-11-20T14:42:00;4.72;;;1.77;;
49592;SDS011;35499;51.482;4.264;2022-11-20T14:44:29;1.73;;;0.98;;
49592;SDS011;35499;51.482;4.264;2022-11-20T14:46:55;1.55;;;0.60;;
49592;SDS011;35499;51.482;4.264;2022-11-20T14:49:21;3.13;;;1.48;;
49592;SDS011;35499;51.482;4.264;2022-11-20T14:51:47;3.03;;;1.63;;
49592;SDS011;35499;51.482;4.264;2022-11-20T14:54:22;2.80;;;1.02;;
49592;SDS011;35499;51.482;4.264;2022-11-20T14:57:01;1.47;;;0.80;;
49592;SDS011;35499;51.482;4.264;2022-11-20T14:59:36;1.20;;;0.82;;
49592;SDS011;35499;51.482;4.264;2022-11-20T15:02:06;3.05;;;0.77;;
49592;SDS011;35499;51.482;4.264;2022-11-20T15:04:33;0.90;;;0.77;;
49592;SDS011;35499;51.482;4.264;2022-11-20T15:07:08;1.50;;;1.08;;
49592;SDS011;35499;51.482;4.264;2022-11-20T15:09:34;1.23;;;0.73;;
49592;SDS011;35499;51.482;4.264;2022-11-20T15:12:02;1.93;;;1.63;;
49592;SDS011;35499;51.482;4.264;2022-11-20T15:14:28;3.90;;;1.83;;
49592;SDS011;35499;51.482;4.264;2022-11-20T15:16:55;3.30;;;1.63;;
49592;SDS011;35499;51.482;4.264;2022-11-20T15:19:20;3.27;;;1.57;;
49592;SDS011;35499;51.482;4.264;2022-11-20T15:21:46;3.08;;;1.25;;
49592;SDS011;35499;51.482;4.264;2022-11-20T15:24:11;4.37;;;2.57;;
49592;SDS011;35499;51.482;4.264;2022-11-20T15:26:36;1.90;;;1.20;;
49592;SDS011;35499;51.482;4.264;2022-11-20T15:29:02;14.00;;;2.80;;
49592;SDS011;35499;51.482;4.264;2022-11-20T15:31:27;15.60;;;3.53;;
49592;SDS011;35499;51.482;4.264;2022-11-20T15:33:53;5.33;;;3.20;;
49592;SDS011;35499;51.482;4.264;2022-11-20T15:36:18;5.20;;;2.83;;
49592;SDS011;35499;51.482;4.264;2022-11-20T15:38:43;4.80;;;2.97;;
49592;SDS011;35499;51.482;4.264;2022-11-20T15:41:08;2.67;;;2.27;;
49592;SDS011;35499;51.482;4.264;2022-11-20T15:43:33;3.63;;;2.50;;
49592;SDS011;35499;51.482;4.264;2022-11-20T15:46:00;4.27;;;2.37;;
49592;SDS011;35499;51.482;4.264;2022-11-20T15:48:29;3.97;;;2.50;;
49592;SDS011;35499;51.482;4.264;2022-11-20T15:50:57;7.00;;;3.90;;
49592;SDS011;35499;51.482;4.264;2022-11-20T15:53:23;6.20;;;2.90;;
49592;SDS011;35499;51.482;4.264;2022-11-20T15:55:48;4.07;;;2.90;;
49592;SDS011;35499;51.482;4.264;2022-11-20T15:58:13;2.70;;;2.20;;
49592;SDS011;35499;51.482;4.264;2022-11-20T16:00:38;7.00;;;2.93;;
49592;SDS011;35499;51.482;4.264;2022-11-20T16:03:03;3.27;;;1.77;;
49592;SDS011;35499;51.482;4.264;2022-11-20T16:05:29;5.40;;;1.90;;
49592;SDS011;35499;51.482;4.264;2022-11-20T16:07:54;0.75;;;0.75;;
49592;SDS011;35499;51.482;4.264;2022-11-20T16:10:20;1.10;;;0.77;;
49592;SDS011;35499;51.482;4.264;2022-11-20T16:12:46;3.88;;;1.13;;
49592;SDS011;35499;51.482;4.264;2022-11-20T16:15:30;7.63;;;0.98;;